createdAt,value
2022-11-24T00:01:40.825Z,3.60
2022-11-24T00:04:11.489Z,3.10
2022-11-24T00:06:41.634Z,3.30
2022-11-24T00:09:14.566Z,3.20
2022-11-24T00:11:44.733Z,3.40
2022-11-24T00:14:15.095Z,3.60
2022-11-24T00:16:45.230Z,3.00
2022-11-24T00:19:19.570Z,3.50
2022-11-24T00:21:50.156Z,3.30
2022-11-24T00:24:23.051Z,3.10
2022-11-24T00:26:53.145Z,3.60
2022-11-24T00:29:23.254Z,3.70
2022-11-24T00:34:23.836Z,3.60
2022-11-24T00:39:27.012Z,3.50
2022-11-24T00:44:27.488Z,3.70
2022-11-24T00:49:28.100Z,3.70
2022-11-24T00:54:31.546Z,3.50
2022-11-24T01:04:33.757Z,3.60
2022-11-24T01:09:37.867Z,3.50
2022-11-24T01:14:39.240Z,3.10
2022-11-24T01:24:43.044Z,3.30
2022-11-24T01:27:13.164Z,3.00
2022-11-24T01:29:43.376Z,3.40
2022-11-24T01:32:13.566Z,3.50
2022-11-24T01:34:43.699Z,3.50
2022-11-24T01:37:13.857Z,3.60
2022-11-24T01:39:46.595Z,3.90
2022-11-24T01:42:16.774Z,3.70
2022-11-24T01:44:46.964Z,3.50
2022-11-24T01:47:30.616Z,3.90
2022-11-24T01:50:04.012Z,3.90
2022-11-24T01:52:39.481Z,3.80
2022-11-24T01:55:18.934Z,3.50
2022-11-24T01:57:53.634Z,3.80
2022-11-24T02:00:24.097Z,3.60
2022-11-24T02:02:55.658Z,4.10
2022-11-24T02:05:31.799Z,3.50
2022-11-24T02:08:04.723Z,4.30
2022-11-24T02:10:37.944Z,3.90
2022-11-24T02:13:08.764Z,3.50
2022-11-24T02:15:39.199Z,3.80
2022-11-24T02:23:18.408Z,4.00
2022-11-24T02:25:58.440Z,3.70
2022-11-24T02:28:33.734Z,4.70
2022-11-24T02:31:04.933Z,3.80
2022-11-24T02:33:37.115Z,3.80
2022-11-24T02:38:38.769Z,3.80
2022-11-24T02:41:11.251Z,4.90
2022-11-24T02:43:47.597Z,3.90
2022-11-24T02:46:17.884Z,4.10
2022-11-24T02:48:48.230Z,4.00
2022-11-24T02:53:49.011Z,3.80
2022-11-24T02:56:19.231Z,3.90
2022-11-24T02:58:51.926Z,4.10
2022-11-24T03:01:22.723Z,4.10
2022-11-24T03:03:53.177Z,4.10
2022-11-24T03:11:24.108Z,3.80
2022-11-24T03:13:56.814Z,4.00
2022-11-24T03:16:26.982Z,4.40
2022-11-24T03:26:28.650Z,4.30
2022-11-24T03:29:01.375Z,4.30
2022-11-24T03:34:02.262Z,4.40
2022-11-24T03:39:02.768Z,5.00
2022-11-24T03:41:32.920Z,4.40
2022-11-24T03:44:05.957Z,4.80
2022-11-24T03:51:37.132Z,4.40
2022-11-24T03:54:07.441Z,4.10
2022-11-24T03:56:37.741Z,4.60
2022-11-24T03:59:10.485Z,4.40
2022-11-24T04:04:13.744Z,4.60
2022-11-24T04:09:14.302Z,4.50
2022-11-24T04:14:29.690Z,4.40
2022-11-24T04:16:59.736Z,4.10
2022-11-24T04:19:29.764Z,4.30
2022-11-24T04:21:59.785Z,4.20
2022-11-24T04:24:29.805Z,4.80
2022-11-24T04:26:59.760Z,4.80
2022-11-24T04:29:32.329Z,4.70
2022-11-24T04:39:33.867Z,5.50
2022-11-24T04:42:03.971Z,4.50
2022-11-24T04:44:36.817Z,4.80
2022-11-24T04:47:07.030Z,4.70
2022-11-24T04:49:36.994Z,4.90
2022-11-24T04:52:07.434Z,4.70
2022-11-24T04:57:07.754Z,4.30
2022-11-24T04:59:40.301Z,4.70
2022-11-24T05:07:18.396Z,4.70
2022-11-24T05:10:02.001Z,4.80
2022-11-24T05:15:07.548Z,4.30
2022-11-24T05:17:40.464Z,4.70
2022-11-24T05:20:11.453Z,4.30
2022-11-24T05:22:41.472Z,4.90
2022-11-24T05:25:12.884Z,4.50
2022-11-24T05:30:16.688Z,4.70
2022-11-24T05:32:46.792Z,5.00
2022-11-24T05:35:17.141Z,5.00
2022-11-24T05:40:18.202Z,4.80
2022-11-24T05:42:48.489Z,4.70
2022-11-24T05:45:22.934Z,4.80
2022-11-24T05:47:53.374Z,4.90
2022-11-24T05:50:25.270Z,4.90
2022-11-24T05:55:25.748Z,5.20
2022-11-24T05:58:02.008Z,4.90
2022-11-24T06:00:35.711Z,4.90
2022-11-24T06:03:06.678Z,5.20
2022-11-24T06:05:37.164Z,4.90
2022-11-24T06:08:07.882Z,5.20
2022-11-24T06:13:09.506Z,4.70
2022-11-24T06:15:42.249Z,4.70
2022-11-24T06:18:12.316Z,4.50
2022-11-24T06:20:53.170Z,4.80
2022-11-24T06:28:33.936Z,4.20
2022-11-24T06:31:07.960Z,4.40
2022-11-24T06:33:40.308Z,6.10
2022-11-24T06:36:12.827Z,4.50
2022-11-24T06:38:42.860Z,4.70
2022-11-24T06:41:15.391Z,4.40
2022-11-24T06:43:45.788Z,4.40
2022-11-24T06:46:18.613Z,4.70
2022-11-24T06:53:49.668Z,4.50
2022-11-24T06:56:22.704Z,4.60
2022-11-24T06:58:54.914Z,4.70
2022-11-24T07:01:29.792Z,4.50
2022-11-24T07:04:00.896Z,4.60
2022-11-24T07:14:02.677Z,4.70
2022-11-24T07:16:35.389Z,4.80
2022-11-24T07:19:05.602Z,4.90
2022-11-24T07:21:35.652Z,4.90
2022-11-24T07:24:05.776Z,5.00
2022-11-24T07:29:07.868Z,5.10
2022-11-24T07:31:40.539Z,4.50
2022-11-24T07:34:10.653Z,5.00
2022-11-24T07:41:41.405Z,5.20
2022-11-24T07:46:44.497Z,4.80
2022-11-24T07:54:15.314Z,5.00
2022-11-24T07:56:45.302Z,5.10
2022-11-24T07:59:15.324Z,4.90
2022-11-24T08:01:47.989Z,4.60
2022-11-24T08:04:18.180Z,5.10
2022-11-24T08:06:48.398Z,4.90
2022-11-24T08:09:18.436Z,4.80
2022-11-24T08:11:48.446Z,5.30
2022-11-24T08:14:18.594Z,5.10
2022-11-24T08:16:51.280Z,5.40
2022-11-24T08:19:21.375Z,5.60
2022-11-24T08:24:21.820Z,5.50
2022-11-24T08:26:51.832Z,5.20
2022-11-24T08:29:21.829Z,5.70
2022-11-24T08:31:57.220Z,5.80
2022-11-24T08:34:28.010Z,5.40
2022-11-24T08:36:58.072Z,5.70
2022-11-24T08:39:28.069Z,6.10
2022-11-24T08:41:58.030Z,5.70
2022-11-24T08:47:01.615Z,6.60
2022-11-24T08:52:02.376Z,6.00
2022-11-24T08:54:33.109Z,6.10
2022-11-24T09:02:06.940Z,6.50
2022-11-24T09:07:08.335Z,6.70
2022-11-24T09:12:14.304Z,6.60
2022-11-24T09:14:44.828Z,6.90
2022-11-24T09:17:17.425Z,6.60
2022-11-24T09:19:47.456Z,6.90
2022-11-24T09:22:19.455Z,6.90
2022-11-24T09:24:50.110Z,6.50
2022-11-24T09:27:20.908Z,6.90
2022-11-24T09:32:24.285Z,6.30
2022-11-24T09:34:54.353Z,6.90
2022-11-24T09:37:28.191Z,6.50
2022-11-24T09:42:41.695Z,6.40
2022-11-24T09:45:41.562Z,6.40
2022-11-24T09:48:18.661Z,6.40
2022-11-24T09:50:51.079Z,6.40
2022-11-24T09:53:27.976Z,6.40
2022-11-24T09:56:01.331Z,6.40
2022-11-24T09:58:42.316Z,6.60
2022-11-24T10:01:19.684Z,6.70
2022-11-24T10:03:54.021Z,6.30
2022-11-24T10:06:27.207Z,6.60
2022-11-24T10:09:33.397Z,6.40
2022-11-24T10:12:16.437Z,6.40
2022-11-24T10:15:08.885Z,6.40
2022-11-24T10:17:54.101Z,6.40
2022-11-24T10:20:37.454Z,6.20
2022-11-24T10:23:21.705Z,6.50
2022-11-24T10:25:59.243Z,6.30
2022-11-24T10:28:38.559Z,6.50
2022-11-24T10:36:28.667Z,6.70
2022-11-24T10:39:05.809Z,6.90
2022-11-24T10:44:16.296Z,7.70
2022-11-24T11:07:30.798Z,6.60
2022-11-24T11:31:21.007Z,6.20
2022-11-24T12:09:19.397Z,6.80
2022-11-24T12:14:34.050Z,6.70
2022-11-24T12:22:42.341Z,6.80
2022-11-24T12:51:42.480Z,7.20
2022-11-24T12:59:30.644Z,7.10
2022-11-24T13:07:14.198Z,7.20
2022-11-24T13:18:49.466Z,7.10
2022-11-24T13:27:16.570Z,7.10
2022-11-24T13:37:54.905Z,7.10
2022-11-24T13:56:29.805Z,7.10
2022-11-24T14:04:29.895Z,7.00
2022-11-24T14:07:09.105Z,7.00
2022-11-24T14:22:30.199Z,6.80
2022-11-24T14:25:01.691Z,6.70
2022-11-24T14:35:05.371Z,6.30
2022-11-24T14:42:40.240Z,6.50
2022-11-24T15:05:55.905Z,6.30
2022-11-24T15:29:13.095Z,6.10
2022-11-24T15:31:47.861Z,6.30
2022-11-24T15:36:51.410Z,6.10
2022-11-24T15:49:25.475Z,6.40
2022-11-24T15:51:55.528Z,5.40
2022-11-24T15:59:31.240Z,5.40
2022-11-24T16:09:38.908Z,5.60
2022-11-24T16:37:16.989Z,4.90
2022-11-24T16:39:50.388Z,5.20
2022-11-24T16:42:20.484Z,4.80
2022-11-24T16:54:55.960Z,5.10
2022-11-24T16:59:56.497Z,5.70
2022-11-24T17:02:26.533Z,4.60
2022-11-24T17:04:56.533Z,4.90
2022-11-24T17:10:00.658Z,5.30
2022-11-24T17:12:30.850Z,4.80
2022-11-24T17:18:22.350Z,4.90
2022-11-24T17:20:41.631Z,5.20
2022-11-24T17:23:11.677Z,4.80
2022-11-24T17:25:44.295Z,5.00
2022-11-24T17:35:45.515Z,5.10
2022-11-24T17:38:15.616Z,4.70
2022-11-24T17:40:52.369Z,4.90
2022-11-24T17:45:56.466Z,5.00
2022-11-24T17:51:07.911Z,4.90
2022-11-24T17:53:39.455Z,5.00
2022-11-24T17:56:15.559Z,5.00
2022-11-24T17:58:46.163Z,4.90
2022-11-24T18:01:17.760Z,5.20
2022-11-24T18:06:25.751Z,6.30
2022-11-24T18:08:58.046Z,5.00
2022-11-24T18:11:32.500Z,4.90
2022-11-24T18:14:04.653Z,4.80
2022-11-24T18:16:37.199Z,4.70
2022-11-24T18:19:11.166Z,4.60
2022-11-24T18:21:42.317Z,5.30
2022-11-24T18:24:13.820Z,4.50
2022-11-24T18:26:46.819Z,4.50
2022-11-24T18:31:47.278Z,4.10
2022-11-24T18:34:17.431Z,4.40
2022-11-24T18:36:52.060Z,3.90
2022-11-24T18:39:22.135Z,4.30
2022-11-24T18:41:54.769Z,4.20
2022-11-24T18:54:26.803Z,3.90
2022-11-24T18:57:03.291Z,3.70
2022-11-24T18:59:33.962Z,3.50
2022-11-24T19:04:34.817Z,3.60
2022-11-24T19:09:35.275Z,3.80
2022-11-24T19:12:10.367Z,3.90
2022-11-24T19:14:40.525Z,3.70
2022-11-24T19:17:10.742Z,3.80
2022-11-24T19:19:40.936Z,4.20
2022-11-24T19:27:21.083Z,4.50
2022-11-24T19:29:51.161Z,4.20
2022-11-24T19:34:51.898Z,4.30
2022-11-24T19:37:23.531Z,4.20
2022-11-24T19:39:53.658Z,6.00
2022-11-24T19:42:26.360Z,4.30
2022-11-24T19:44:56.818Z,4.00
2022-11-24T19:49:58.702Z,4.10
2022-11-24T19:57:32.484Z,4.30
2022-11-24T20:12:40.848Z,4.00
2022-11-24T20:15:12.451Z,4.10
2022-11-24T20:17:42.765Z,4.40
2022-11-24T20:20:13.854Z,7.10
2022-11-24T20:27:47.102Z,4.40
2022-11-24T20:30:17.183Z,3.90
2022-11-24T20:35:18.464Z,4.40
2022-11-24T20:37:48.576Z,3.70
2022-11-24T20:42:52.877Z,3.90
2022-11-24T20:45:23.088Z,4.30
2022-11-24T20:47:53.152Z,4.20
2022-11-24T20:50:23.380Z,4.50
2022-11-24T20:52:53.364Z,3.50
2022-11-24T20:57:56.292Z,3.90
2022-11-24T21:00:26.443Z,3.80
2022-11-24T21:02:57.656Z,3.70
2022-11-24T21:05:27.645Z,3.70
2022-11-24T21:10:28.067Z,4.10
2022-11-24T21:13:00.663Z,4.20
2022-11-24T21:15:31.707Z,3.40
2022-11-24T21:18:01.707Z,3.90
2022-11-24T21:20:31.860Z,4.00
2022-11-24T21:25:33.451Z,3.60
2022-11-24T21:28:07.753Z,3.50
2022-11-24T21:33:09.207Z,3.40
2022-11-24T21:35:39.803Z,3.50
2022-11-24T21:38:09.826Z,3.30
2022-11-24T21:43:12.709Z,3.10
2022-11-24T21:48:13.043Z,3.00
2022-11-24T21:53:13.441Z,3.00
2022-11-24T21:55:43.466Z,2.90
2022-11-24T21:58:16.036Z,2.70
2022-11-24T22:03:16.394Z,2.50
2022-11-24T22:05:54.930Z,2.50
2022-11-24T22:10:55.844Z,2.50
2022-11-24T22:13:28.502Z,2.30
2022-11-24T22:16:05.917Z,2.20
2022-11-24T22:18:36.865Z,2.20
2022-11-24T22:21:08.118Z,2.30
2022-11-24T22:23:38.836Z,2.60
2022-11-24T22:26:10.959Z,3.70
2022-11-24T22:28:44.749Z,2.30
2022-11-24T22:31:17.207Z,2.30
2022-11-24T22:33:47.905Z,2.20
2022-11-24T22:36:20.762Z,2.00
2022-11-24T22:38:55.139Z,2.00
2022-11-24T22:41:25.288Z,2.10
2022-11-24T22:43:58.559Z,2.40
2022-11-24T22:46:30.415Z,1.90
2022-11-24T22:49:02.432Z,2.20
2022-11-24T22:51:34.404Z,2.20
2022-11-24T22:54:05.944Z,2.20
2022-11-24T22:56:36.638Z,1.80
2022-11-24T22:59:09.221Z,2.20
2022-11-24T23:01:39.242Z,2.30
2022-11-24T23:06:39.575Z,2.50
2022-11-24T23:09:10.017Z,2.20
2022-11-24T23:11:42.396Z,2.30
2022-11-24T23:14:18.257Z,2.30
2022-11-24T23:16:48.389Z,2.00
2022-11-24T23:21:48.854Z,1.90
2022-11-24T23:24:19.042Z,2.00
2022-11-24T23:29:21.906Z,1.80
2022-11-24T23:31:51.905Z,2.70
2022-11-24T23:34:21.935Z,1.80
2022-11-24T23:39:22.188Z,2.20
2022-11-24T23:41:52.217Z,2.50
2022-11-24T23:44:25.023Z,2.10
2022-11-24T23:46:55.029Z,2.20
2022-11-24T23:49:25.096Z,2.80
2022-11-24T23:54:25.342Z,2.40
2022-11-24T23:59:28.211Z,1.70
